sensor_id;sensor_type;location;lat;lon;timestamp;pressure;altitude;pressure_sealevel;temperature;humidity
58761;BME280;44529;47.464;19.014;2022-09-12T00:01:41;100015.47;;;16.11;76.01
58761;BME280;44529;47.464;19.014;2022-09-12T00:04:43;100015.81;;;16.09;76.23
58761;BME280;44529;47.464;19.014;2022-09-12T00:07:45;100017.41;;;16.10;75.73
58761;BME280;44529;47.464;19.014;2022-09-12T00:10:47;100003.56;;;16.03;75.45
58761;BME280;44529;47.464;19.014;2022-09-12T00:13:50;100007.38;;;15.98;75.39
58761;BME280;44529;47.464;19.014;2022-09-12T00:16:56;100003.94;;;16.02;74.85
58761;BME280;44529;47.464;19.014;2022-09-12T00:20:00;100005.00;;;16.13;74.10
58761;BME280;44529;47.464;19.014;2022-09-12T00:23:03;100002.25;;;16.13;73.66
58761;BME280;44529;47.464;19.014;2022-09-12T00:26:06;100005.50;;;16.18;73.32
58761;BME280;44529;47.464;19.014;2022-09-12T00:29:15;100008.88;;;16.12;74.13
58761;BME280;44529;47.464;19.014;2022-09-12T00:32:17;100005.69;;;16.10;74.27
58761;BME280;44529;47.464;19.014;2022-09-12T00:35:20;100009.72;;;16.16;73.51
58761;BME280;44529;47.464;19.014;2022-09-12T00:38:22;100007.53;;;16.21;72.66
58761;BME280;44529;47.464;19.014;2022-09-12T00:41:33;100009.09;;;16.22;72.95
58761;BME280;44529;47.464;19.014;2022-09-12T00:47:38;100012.44;;;16.16;73.08
58761;BME280;44529;47.464;19.014;2022-09-12T00:50:40;100018.09;;;16.23;72.61
58761;BME280;44529;47.464;19.014;2022-09-12T00:53:43;100010.44;;;16.13;73.21
58761;BME280;44529;47.464;19.014;2022-09-12T00:56:48;100007.97;;;16.08;73.28
58761;BME280;44529;47.464;19.014;2022-09-12T01:00:02;100011.06;;;16.06;73.48
58761;BME280;44529;47.464;19.014;2022-09-12T01:03:16;99997.06;;;16.08;72.85
58761;BME280;44529;47.464;19.014;2022-09-12T01:06:27;99998.59;;;16.05;72.99
58761;BME280;44529;47.464;19.014;2022-09-12T01:09:29;99996.28;;;16.07;72.58
58761;BME280;44529;47.464;19.014;2022-09-12T01:12:33;99998.22;;;16.07;72.19
58761;BME280;44529;47.464;19.014;2022-09-12T01:15:37;99997.22;;;16.15;71.69
58761;BME280;44529;47.464;19.014;2022-09-12T01:25:52;99999.38;;;16.06;71.91
58761;BME280;44529;47.464;19.014;2022-09-12T01:35:29;99998.03;;;16.15;70.32
58761;BME280;44529;47.464;19.014;2022-09-12T01:38:38;99996.59;;;16.21;69.01
58761;BME280;44529;47.464;19.014;2022-09-12T01:48:29;99989.50;;;16.17;69.49
58761;BME280;44529;47.464;19.014;2022-09-12T01:58:15;99994.50;;;16.15;69.86
58761;BME280;44529;47.464;19.014;2022-09-12T02:01:23;99990.72;;;16.19;70.01
58761;BME280;44529;47.464;19.014;2022-09-12T02:04:32;99994.50;;;16.15;71.15
58761;BME280;44529;47.464;19.014;2022-09-12T02:07:39;99990.94;;;16.11;72.00
58761;BME280;44529;47.464;19.014;2022-09-12T02:10:49;99998.81;;;16.16;72.25
58761;BME280;44529;47.464;19.014;2022-09-12T02:14:05;99994.50;;;16.15;72.31
58761;BME280;44529;47.464;19.014;2022-09-12T02:17:20;99995.91;;;16.09;72.85
58761;BME280;44529;47.464;19.014;2022-09-12T02:20:26;100001.38;;;16.09;72.83
58761;BME280;44529;47.464;19.014;2022-09-12T02:23:55;100010.44;;;16.13;72.75
58761;BME280;44529;47.464;19.014;2022-09-12T02:27:06;100010.25;;;16.21;72.26
58761;BME280;44529;47.464;19.014;2022-09-12T02:30:11;100004.28;;;16.16;72.56
58761;BME280;44529;47.464;19.014;2022-09-12T02:33:26;100006.56;;;16.14;72.94
58761;BME280;44529;47.464;19.014;2022-09-12T02:39:41;100012.22;;;16.05;74.22
58761;BME280;44529;47.464;19.014;2022-09-12T02:42:46;100005.63;;;16.06;74.73
58761;BME280;44529;47.464;19.014;2022-09-12T02:45:49;100009.31;;;15.98;75.34
58761;BME280;44529;47.464;19.014;2022-09-12T02:48:52;100003.59;;;15.87;76.37
58761;BME280;44529;47.464;19.014;2022-09-12T02:51:55;100009.78;;;15.84;77.03
58761;BME280;44529;47.464;19.014;2022-09-12T02:54:58;100016.63;;;15.78;77.21
58761;BME280;44529;47.464;19.014;2022-09-12T02:58:02;100013.81;;;15.75;77.61
58761;BME280;44529;47.464;19.014;2022-09-12T03:11:36;100014.00;;;15.66;77.06
58761;BME280;44529;47.464;19.014;2022-09-12T03:18:17;100026.03;;;15.65;76.62
58761;BME280;44529;47.464;19.014;2022-09-12T03:21:30;100024.78;;;15.62;76.28
58761;BME280;44529;47.464;19.014;2022-09-12T03:24:37;100031.72;;;15.60;76.52
58761;BME280;44529;47.464;19.014;2022-09-12T03:27:48;100032.72;;;15.67;75.85
58761;BME280;44529;47.464;19.014;2022-09-12T03:30:53;100029.81;;;15.76;75.46
58761;BME280;44529;47.464;19.014;2022-09-12T03:34:00;100023.66;;;15.79;75.66
58761;BME280;44529;47.464;19.014;2022-09-12T03:37:02;100025.06;;;15.73;75.57
58761;BME280;44529;47.464;19.014;2022-09-12T03:40:06;100025.06;;;15.73;75.37
58761;BME280;44529;47.464;19.014;2022-09-12T03:43:09;100025.75;;;15.70;75.44
58761;BME280;44529;47.464;19.014;2022-09-12T03:46:12;100017.16;;;15.68;75.66
58761;BME280;44529;47.464;19.014;2022-09-12T03:49:15;100024.91;;;15.66;76.00
58761;BME280;44529;47.464;19.014;2022-09-12T03:52:18;100033.41;;;15.64;75.74
58761;BME280;44529;47.464;19.014;2022-09-12T03:55:20;100028.62;;;15.61;76.27
58761;BME280;44529;47.464;19.014;2022-09-12T03:58:22;100032.50;;;15.60;76.33
58761;BME280;44529;47.464;19.014;2022-09-12T04:01:25;100025.81;;;15.58;76.26
58761;BME280;44529;47.464;19.014;2022-09-12T04:04:27;100035.59;;;15.59;76.20
58761;BME280;44529;47.464;19.014;2022-09-12T04:07:29;100029.06;;;15.48;76.66
58761;BME280;44529;47.464;19.014;2022-09-12T04:10:32;100027.19;;;15.52;76.21
58761;BME280;44529;47.464;19.014;2022-09-12T04:13:34;100022.22;;;15.54;75.60
58761;BME280;44529;47.464;19.014;2022-09-12T04:16:37;100021.75;;;15.52;75.32
58761;BME280;44529;47.464;19.014;2022-09-12T04:19:39;100029.25;;;15.55;74.94
58761;BME280;44529;47.464;19.014;2022-09-12T04:22:42;100017.41;;;15.63;73.92
58761;BME280;44529;47.464;19.014;2022-09-12T04:25:44;100018.03;;;15.72;73.12
58761;BME280;44529;47.464;19.014;2022-09-12T04:28:54;100020.84;;;15.76;72.34
58761;BME280;44529;47.464;19.014;2022-09-12T04:31:58;100023.94;;;15.74;72.32
58761;BME280;44529;47.464;19.014;2022-09-12T04:35:00;100025.69;;;15.82;72.24
58761;BME280;44529;47.464;19.014;2022-09-12T04:38:03;100027.25;;;15.83;72.18
58761;BME280;44529;47.464;19.014;2022-09-12T04:41:18;100032.28;;;15.81;72.94
58761;BME280;44529;47.464;19.014;2022-09-12T04:44:21;100026.94;;;15.85;72.89
58761;BME280;44529;47.464;19.014;2022-09-12T04:47:23;100025.59;;;15.79;73.06
58761;BME280;44529;47.464;19.014;2022-09-12T04:50:26;100026.03;;;15.81;73.70
58761;BME280;44529;47.464;19.014;2022-09-12T04:53:28;100041.31;;;15.69;74.24
58761;BME280;44529;47.464;19.014;2022-09-12T04:56:31;100047.37;;;15.63;75.07
58761;BME280;44529;47.464;19.014;2022-09-12T04:59:35;100043.13;;;15.50;75.27
58761;BME280;44529;47.464;19.014;2022-09-12T05:02:38;100045.16;;;15.53;75.34
58761;BME280;44529;47.464;19.014;2022-09-12T05:05:40;100043.50;;;15.64;74.54
58761;BME280;44529;47.464;19.014;2022-09-12T05:08:42;100049.31;;;15.62;74.80
58761;BME280;44529;47.464;19.014;2022-09-12T05:11:45;100051.00;;;15.67;74.62
58761;BME280;44529;47.464;19.014;2022-09-12T05:15:05;100052.34;;;15.73;73.98
58761;BME280;44529;47.464;19.014;2022-09-12T05:18:08;100057.06;;;15.76;73.80
58761;BME280;44529;47.464;19.014;2022-09-12T05:21:14;100057.25;;;15.83;73.26
58761;BME280;44529;47.464;19.014;2022-09-12T05:24:17;100067.03;;;15.84;73.02
58761;BME280;44529;47.464;19.014;2022-09-12T05:27:19;100066.56;;;15.82;73.15
58761;BME280;44529;47.464;19.014;2022-09-12T05:30:21;100076.44;;;15.87;72.78
58761;BME280;44529;47.464;19.014;2022-09-12T05:33:23;100074.69;;;15.94;72.55
58761;BME280;44529;47.464;19.014;2022-09-12T05:36:27;100069.22;;;15.94;72.11
58761;BME280;44529;47.464;19.014;2022-09-12T05:39:32;100077.16;;;16.00;71.28
58761;BME280;44529;47.464;19.014;2022-09-12T05:42:35;100075.31;;;16.04;71.41
58761;BME280;44529;47.464;19.014;2022-09-12T05:45:38;100081.09;;;16.18;70.81
58761;BME280;44529;47.464;19.014;2022-09-12T05:48:42;100083.84;;;16.18;71.11
58761;BME280;44529;47.464;19.014;2022-09-12T05:51:44;100083.38;;;16.16;71.43
58761;BME280;44529;47.464;19.014;2022-09-12T05:54:47;100089.62;;;16.16;71.25
58761;BME280;44529;47.464;19.014;2022-09-12T05:57:49;100086.47;;;16.30;70.78
58761;BME280;44529;47.464;19.014;2022-09-12T06:00:52;100084.06;;;16.29;70.74
58761;BME280;44529;47.464;19.014;2022-09-12T06:03:55;100088.06;;;16.31;70.52
58761;BME280;44529;47.464;19.014;2022-09-12T06:06:59;100090.94;;;16.22;70.89
58761;BME280;44529;47.464;19.014;2022-09-12T06:10:02;100096.31;;;16.35;70.21
58761;BME280;44529;47.464;19.014;2022-09-12T06:13:06;100094.19;;;16.28;70.58
58761;BME280;44529;47.464;19.014;2022-09-12T06:16:13;100097.81;;;16.32;69.86
58761;BME280;44529;47.464;19.014;2022-09-12T06:19:19;100092.78;;;16.34;70.53
58761;BME280;44529;47.464;19.014;2022-09-12T06:22:22;100103.00;;;16.37;70.46
58761;BME280;44529;47.464;19.014;2022-09-12T06:25:24;100105.63;;;16.49;69.30
58761;BME280;44529;47.464;19.014;2022-09-12T06:28:27;100109.94;;;16.50;69.05
58761;BME280;44529;47.464;19.014;2022-09-12T06:31:34;100105.09;;;16.60;68.57
58761;BME280;44529;47.464;19.014;2022-09-12T06:34:37;100107.53;;;16.65;69.00
58761;BME280;44529;47.464;19.014;2022-09-12T06:37:43;100106.47;;;16.69;69.20
58761;BME280;44529;47.464;19.014;2022-09-12T06:40:45;100114.22;;;16.67;68.89
58761;BME280;44529;47.464;19.014;2022-09-12T06:43:47;100110.09;;;16.73;68.52
58761;BME280;44529;47.464;19.014;2022-09-12T06:46:52;100108.53;;;16.72;68.41
58761;BME280;44529;47.464;19.014;2022-09-12T06:49:55;100105.25;;;16.83;67.91
58761;BME280;44529;47.464;19.014;2022-09-12T06:52:57;100109.13;;;16.82;67.95
58761;BME280;44529;47.464;19.014;2022-09-12T06:56:02;100119.53;;;16.76;68.28
58761;BME280;44529;47.464;19.014;2022-09-12T06:59:05;100122.41;;;16.83;67.80
58761;BME280;44529;47.464;19.014;2022-09-12T07:02:07;100114.59;;;16.82;68.91
58761;BME280;44529;47.464;19.014;2022-09-12T07:05:11;100110.97;;;16.77;68.99
58761;BME280;44529;47.464;19.014;2022-09-12T07:08:13;100111.91;;;16.85;69.48
58761;BME280;44529;47.464;19.014;2022-09-12T07:11:21;100116.75;;;16.92;68.34
58761;BME280;44529;47.464;19.014;2022-09-12T07:14:24;100113.59;;;16.90;69.98
58761;BME280;44529;47.464;19.014;2022-09-12T07:17:27;100111.59;;;17.06;69.59
58761;BME280;44529;47.464;19.014;2022-09-12T07:20:29;100115.19;;;17.10;68.58
58761;BME280;44529;47.464;19.014;2022-09-12T07:23:34;100113.47;;;17.21;68.34
58761;BME280;44529;47.464;19.014;2022-09-12T07:26:37;100116.28;;;17.25;67.40
58761;BME280;44529;47.464;19.014;2022-09-12T07:29:40;100123.41;;;17.49;65.22
58761;BME280;44529;47.464;19.014;2022-09-12T07:32:42;100117.84;;;17.84;63.93
58761;BME280;44529;47.464;19.014;2022-09-12T07:35:44;100120.94;;;18.28;62.13
58761;BME280;44529;47.464;19.014;2022-09-12T07:38:47;100123.97;;;18.46;60.94
58761;BME280;44529;47.464;19.014;2022-09-12T07:41:50;100129.41;;;18.43;59.43
58761;BME280;44529;47.464;19.014;2022-09-12T07:44:52;100136.88;;;18.46;59.67
58761;BME280;44529;47.464;19.014;2022-09-12T07:47:55;100131.06;;;18.74;57.87
58761;BME280;44529;47.464;19.014;2022-09-12T07:51:02;100123.25;;;19.02;56.75
58761;BME280;44529;47.464;19.014;2022-09-12T07:54:08;100122.69;;;19.19;54.08
58761;BME280;44529;47.464;19.014;2022-09-12T07:57:10;100123.50;;;19.91;52.62
58761;BME280;44529;47.464;19.014;2022-09-12T08:00:13;100122.50;;;20.10;51.75
58761;BME280;44529;47.464;19.014;2022-09-12T08:03:18;100126.19;;;20.76;49.06
58761;BME280;44529;47.464;19.014;2022-09-12T08:06:21;100130.75;;;21.27;48.72
58761;BME280;44529;47.464;19.014;2022-09-12T08:09:27;100124.69;;;21.90;47.17
58761;BME280;44529;47.464;19.014;2022-09-12T08:12:29;100132.63;;;22.17;45.71
58761;BME280;44529;47.464;19.014;2022-09-12T08:15:33;100133.38;;;22.14;45.47
58761;BME280;44529;47.464;19.014;2022-09-12T08:18:35;100137.34;;;22.41;44.74
58761;BME280;44529;47.464;19.014;2022-09-12T08:21:38;100137.72;;;22.61;44.62
58761;BME280;44529;47.464;19.014;2022-09-12T08:24:40;100124.75;;;22.55;44.03
58761;BME280;44529;47.464;19.014;2022-09-12T08:27:43;100134.47;;;23.13;43.92
58761;BME280;44529;47.464;19.014;2022-09-12T08:30:45;100127.12;;;23.69;42.27
58761;BME280;44529;47.464;19.014;2022-09-12T08:33:48;100129.69;;;24.04;41.45
58761;BME280;44529;47.464;19.014;2022-09-12T08:36:50;100129.44;;;24.33;41.24
58761;BME280;44529;47.464;19.014;2022-09-12T08:39:55;100138.50;;;24.41;40.78
58761;BME280;44529;47.464;19.014;2022-09-12T08:43:05;100133.47;;;24.25;40.97
58761;BME280;44529;47.464;19.014;2022-09-12T08:46:21;100134.06;;;24.50;41.62
58761;BME280;44529;47.464;19.014;2022-09-12T08:49:31;100129.88;;;24.35;42.67
58761;BME280;44529;47.464;19.014;2022-09-12T08:52:52;100130.34;;;24.68;42.76
58761;BME280;44529;47.464;19.014;2022-09-12T08:55:59;100132.00;;;24.62;46.60
58761;BME280;44529;47.464;19.014;2022-09-12T08:59:01;100119.09;;;24.48;43.38
58761;BME280;44529;47.464;19.014;2022-09-12T09:05:58;100114.84;;;24.36;42.69
58761;BME280;44529;47.464;19.014;2022-09-12T09:12:24;100107.91;;;24.62;44.00
58761;BME280;44529;47.464;19.014;2022-09-12T09:18:38;100104.44;;;24.02;42.36
58761;BME280;44529;47.464;19.014;2022-09-12T09:22:01;100110.94;;;24.30;42.20
58761;BME280;44529;47.464;19.014;2022-09-12T09:25:12;100107.28;;;24.40;41.87
58761;BME280;44529;47.464;19.014;2022-09-12T09:28:46;100109.69;;;24.38;42.60
58761;BME280;44529;47.464;19.014;2022-09-12T09:31:53;100114.19;;;24.14;42.11
58761;BME280;44529;47.464;19.014;2022-09-12T09:34:56;100126.19;;;23.97;41.74
58761;BME280;44529;47.464;19.014;2022-09-12T09:44:51;100116.34;;;23.89;43.09
58761;BME280;44529;47.464;19.014;2022-09-12T09:48:02;100107.28;;;23.92;44.24
58761;BME280;44529;47.464;19.014;2022-09-12T09:51:07;100111.97;;;23.18;43.89
58761;BME280;44529;47.464;19.014;2022-09-12T09:54:20;100114.81;;;22.96;46.69
58761;BME280;44529;47.464;19.014;2022-09-12T10:00:36;100126.22;;;23.13;45.79
58761;BME280;44529;47.464;19.014;2022-09-12T10:03:47;100113.19;;;23.10;46.51
58761;BME280;44529;47.464;19.014;2022-09-12T10:06:55;100114.38;;;23.09;46.10
58761;BME280;44529;47.464;19.014;2022-09-12T10:10:05;100111.19;;;23.21;46.23
58761;BME280;44529;47.464;19.014;2022-09-12T10:13:22;100103.72;;;23.14;47.22
58761;BME280;44529;47.464;19.014;2022-09-12T10:16:31;100108.19;;;22.62;46.89
58761;BME280;44529;47.464;19.014;2022-09-12T10:19:36;100116.44;;;22.08;50.95
58761;BME280;44529;47.464;19.014;2022-09-12T10:22:38;100125.06;;;21.78;49.11
58761;BME280;44529;47.464;19.014;2022-09-12T10:25:45;100117.53;;;21.57;49.76
58761;BME280;44529;47.464;19.014;2022-09-12T10:28:53;100123.78;;;21.40;50.08
58761;BME280;44529;47.464;19.014;2022-09-12T10:31:59;100123.66;;;21.22;52.46
58761;BME280;44529;47.464;19.014;2022-09-12T10:35:06;100121.78;;;21.33;52.27
58761;BME280;44529;47.464;19.014;2022-09-12T10:38:20;100114.34;;;21.41;51.16
58761;BME280;44529;47.464;19.014;2022-09-12T10:41:24;100117.06;;;21.37;52.97
58761;BME280;44529;47.464;19.014;2022-09-12T10:44:32;100126.47;;;21.29;50.94
58761;BME280;44529;47.464;19.014;2022-09-12T10:47:36;100116.31;;;21.48;51.13
58761;BME280;44529;47.464;19.014;2022-09-12T10:50:40;100107.75;;;21.74;51.88
58761;BME280;44529;47.464;19.014;2022-09-12T10:53:44;100103.06;;;22.03;49.84
58761;BME280;44529;47.464;19.014;2022-09-12T11:00:13;100090.50;;;22.13;48.22
58761;BME280;44529;47.464;19.014;2022-09-12T11:03:39;100095.56;;;21.72;51.34
58761;BME280;44529;47.464;19.014;2022-09-12T11:10:42;100089.50;;;21.20;53.20
58761;BME280;44529;47.464;19.014;2022-09-12T11:30:33;100096.22;;;20.60;50.85
58761;BME280;44529;47.464;19.014;2022-09-12T11:33:43;100090.72;;;20.60;50.75
58761;BME280;44529;47.464;19.014;2022-09-12T11:39:53;100114.25;;;20.54;50.66
58761;BME280;44529;47.464;19.014;2022-09-12T11:43:04;100100.94;;;20.60;50.71
58761;BME280;44529;47.464;19.014;2022-09-12T11:50:03;100096.88;;;20.43;53.54
58761;BME280;44529;47.464;19.014;2022-09-12T11:53:17;100105.00;;;20.83;53.53
58761;BME280;44529;47.464;19.014;2022-09-12T11:56:20;100100.53;;;21.30;53.04
58761;BME280;44529;47.464;19.014;2022-09-12T11:59:39;100091.59;;;21.62;54.45
58761;BME280;44529;47.464;19.014;2022-09-12T12:06:31;100088.41;;;21.42;52.94
58761;BME280;44529;47.464;19.014;2022-09-12T12:09:35;100083.59;;;21.21;54.25
58761;BME280;44529;47.464;19.014;2022-09-12T12:12:37;100085.94;;;21.16;52.25
58761;BME280;44529;47.464;19.014;2022-09-12T12:15:48;100088.59;;;20.94;52.05
58761;BME280;44529;47.464;19.014;2022-09-12T12:18:56;100081.88;;;20.92;51.60
58761;BME280;44529;47.464;19.014;2022-09-12T12:22:07;100070.53;;;20.97;51.56
58761;BME280;44529;47.464;19.014;2022-09-12T12:35:42;100055.69;;;21.19;51.24
58761;BME280;44529;47.464;19.014;2022-09-12T12:38:47;100064.88;;;21.59;50.38
58761;BME280;44529;47.464;19.014;2022-09-12T12:41:49;100066.44;;;21.67;50.08
58761;BME280;44529;47.464;19.014;2022-09-12T12:44:51;100068.41;;;21.63;50.52
58761;BME280;44529;47.464;19.014;2022-09-12T12:47:56;100058.97;;;21.68;49.07
58761;BME280;44529;47.464;19.014;2022-09-12T12:57:48;100062.94;;;22.06;46.39
58761;BME280;44529;47.464;19.014;2022-09-12T13:01:14;100056.25;;;21.96;46.98
58761;BME280;44529;47.464;19.014;2022-09-12T13:04:19;100059.00;;;21.85;46.24
58761;BME280;44529;47.464;19.014;2022-09-12T13:07:26;100070.38;;;21.73;46.79
58761;BME280;44529;47.464;19.014;2022-09-12T13:10:30;100064.84;;;21.62;47.34
58761;BME280;44529;47.464;19.014;2022-09-12T13:13:38;100057.37;;;21.45;47.27
58761;BME280;44529;47.464;19.014;2022-09-12T13:16:54;100055.41;;;21.39;48.02
58761;BME280;44529;47.464;19.014;2022-09-12T13:20:19;100049.47;;;21.36;48.10
58761;BME280;44529;47.464;19.014;2022-09-12T13:23:31;100048.28;;;21.30;48.34
58761;BME280;44529;47.464;19.014;2022-09-12T13:26:40;100046.28;;;21.27;49.03
58761;BME280;44529;47.464;19.014;2022-09-12T13:29:43;100045.94;;;21.29;49.23
58761;BME280;44529;47.464;19.014;2022-09-12T13:32:45;100046.28;;;21.27;48.80
58761;BME280;44529;47.464;19.014;2022-09-12T13:35:59;100032.19;;;21.43;48.78
58761;BME280;44529;47.464;19.014;2022-09-12T13:39:27;100030.69;;;21.74;47.86
58761;BME280;44529;47.464;19.014;2022-09-12T13:42:37;100024.41;;;21.84;47.47
58761;BME280;44529;47.464;19.014;2022-09-12T13:45:41;100023.59;;;21.87;47.08
58761;BME280;44529;47.464;19.014;2022-09-12T13:48:44;100042.47;;;21.78;46.40
58761;BME280;44529;47.464;19.014;2022-09-12T13:52:16;100025.97;;;21.85;46.73
58761;BME280;44529;47.464;19.014;2022-09-12T13:55:39;100031.06;;;21.80;46.16
58761;BME280;44529;47.464;19.014;2022-09-12T13:58:54;100020.03;;;21.69;45.92
58761;BME280;44529;47.464;19.014;2022-09-12T14:01:57;100029.88;;;21.63;46.82
58761;BME280;44529;47.464;19.014;2022-09-12T14:05:09;100030.25;;;21.51;46.18
58761;BME280;44529;47.464;19.014;2022-09-12T14:08:13;100033.00;;;21.40;47.02
58761;BME280;44529;47.464;19.014;2022-09-12T14:11:22;100046.28;;;21.27;45.87
58761;BME280;44529;47.464;19.014;2022-09-12T14:14:34;100043.87;;;21.19;45.75
58761;BME280;44529;47.464;19.014;2022-09-12T14:17:37;100041.13;;;21.08;45.72
58761;BME280;44529;47.464;19.014;2022-09-12T14:20:40;100035.56;;;20.94;46.21
58761;BME280;44529;47.464;19.014;2022-09-12T14:23:44;100042.22;;;20.93;47.07
58761;BME280;44529;47.464;19.014;2022-09-12T14:26:52;100033.63;;;20.94;47.23
58761;BME280;44529;47.464;19.014;2022-09-12T14:36:16;100034.47;;;21.23;47.14
58761;BME280;44529;47.464;19.014;2022-09-12T14:39:36;100027.47;;;21.33;45.45
58761;BME280;44529;47.464;19.014;2022-09-12T14:42:40;100020.41;;;21.43;45.95
58761;BME280;44529;47.464;19.014;2022-09-12T14:45:43;100023.56;;;21.45;45.44
58761;BME280;44529;47.464;19.014;2022-09-12T14:49:06;100032.22;;;21.54;45.02
58761;BME280;44529;47.464;19.014;2022-09-12T14:52:30;100026.72;;;21.54;43.48
58761;BME280;44529;47.464;19.014;2022-09-12T14:55:41;100034.97;;;21.54;42.75
58761;BME280;44529;47.464;19.014;2022-09-12T14:58:44;100029.50;;;21.68;41.83
58761;BME280;44529;47.464;19.014;2022-09-12T15:01:46;100023.56;;;21.48;42.33
58761;BME280;44529;47.464;19.014;2022-09-12T15:04:51;100026.69;;;21.36;42.07
58761;BME280;44529;47.464;19.014;2022-09-12T15:08:01;100021.09;;;21.18;43.09
58761;BME280;44529;47.464;19.014;2022-09-12T15:11:05;100015.59;;;21.18;42.98
58761;BME280;44529;47.464;19.014;2022-09-12T15:14:11;100014.47;;;21.26;42.81
58761;BME280;44529;47.464;19.014;2022-09-12T15:17:14;100016.09;;;21.34;43.61
58761;BME280;44529;47.464;19.014;2022-09-12T15:20:16;100008.62;;;21.39;43.27
58761;BME280;44529;47.464;19.014;2022-09-12T15:23:30;100012.56;;;21.45;43.08
58761;BME280;44529;47.464;19.014;2022-09-12T15:26:34;100015.72;;;21.47;43.29
58761;BME280;44529;47.464;19.014;2022-09-12T15:29:37;100011.75;;;21.44;43.37
58761;BME280;44529;47.464;19.014;2022-09-12T15:32:41;100009.00;;;21.37;44.26
58761;BME280;44529;47.464;19.014;2022-09-12T15:35:44;100019.59;;;21.31;42.38
58761;BME280;44529;47.464;19.014;2022-09-12T15:38:47;100017.66;;;21.35;41.71
58761;BME280;44529;47.464;19.014;2022-09-12T15:41:50;100012.94;;;21.36;40.48
58761;BME280;44529;47.464;19.014;2022-09-12T15:44:52;100018.84;;;21.42;40.68
58761;BME280;44529;47.464;19.014;2022-09-12T15:47:55;100013.72;;;21.29;41.39
58761;BME280;44529;47.464;19.014;2022-09-12T15:50:57;100010.16;;;21.25;41.67
58761;BME280;44529;47.464;19.014;2022-09-12T15:54:03;100014.84;;;21.25;41.63
58761;BME280;44529;47.464;19.014;2022-09-12T15:57:06;100012.47;;;21.16;42.40
58761;BME280;44529;47.464;19.014;2022-09-12T16:00:09;100007.75;;;21.24;42.62
58761;BME280;44529;47.464;19.014;2022-09-12T16:03:23;100008.94;;;21.16;43.04
58761;BME280;44529;47.464;19.014;2022-09-12T16:06:26;100008.53;;;21.06;43.04
58761;BME280;44529;47.464;19.014;2022-09-12T16:09:37;100015.19;;;21.09;42.11
58761;BME280;44529;47.464;19.014;2022-09-12T16:12:39;100015.56;;;21.04;42.16
58761;BME280;44529;47.464;19.014;2022-09-12T16:15:41;100016.72;;;20.99;42.63
58761;BME280;44529;47.464;19.014;2022-09-12T16:18:44;100012.44;;;21.02;42.13
58761;BME280;44529;47.464;19.014;2022-09-12T16:21:46;100020.22;;;20.89;42.40
58761;BME280;44529;47.464;19.014;2022-09-12T16:24:49;100028.06;;;20.83;42.68
58761;BME280;44529;47.464;19.014;2022-09-12T16:27:51;100019.41;;;20.81;43.56
58761;BME280;44529;47.464;19.014;2022-09-12T16:31:00;100023.72;;;20.75;43.38
58761;BME280;44529;47.464;19.014;2022-09-12T16:34:03;100023.28;;;20.70;43.68
58761;BME280;44529;47.464;19.014;2022-09-12T16:37:05;100031.50;;;20.66;44.03
58761;BME280;44529;47.464;19.014;2022-09-12T16:40:08;100020.91;;;20.61;44.06
58761;BME280;44529;47.464;19.014;2022-09-12T16:43:10;100021.66;;;20.54;43.71
58761;BME280;44529;47.464;19.014;2022-09-12T16:49:17;100015.62;;;20.38;44.24
58761;BME280;44529;47.464;19.014;2022-09-12T16:52:19;100004.22;;;20.33;44.38
58761;BME280;44529;47.464;19.014;2022-09-12T16:55:21;99997.84;;;20.21;44.77
58761;BME280;44529;47.464;19.014;2022-09-12T16:58:24;100003.34;;;20.18;46.12
58761;BME280;44529;47.464;19.014;2022-09-12T17:01:26;100001.00;;;20.16;44.97
58761;BME280;44529;47.464;19.014;2022-09-12T17:04:28;100002.03;;;20.01;45.70
58761;BME280;44529;47.464;19.014;2022-09-12T17:07:31;100001.19;;;19.93;46.83
58761;BME280;44529;47.464;19.014;2022-09-12T17:10:39;100002.66;;;19.80;46.17
58761;BME280;44529;47.464;19.014;2022-09-12T17:13:46;100008.44;;;19.68;46.81
58761;BME280;44529;47.464;19.014;2022-09-12T17:17:05;100008.44;;;19.64;47.07
58761;BME280;44529;47.464;19.014;2022-09-12T17:20:08;100018.50;;;19.57;47.71
58761;BME280;44529;47.464;19.014;2022-09-12T17:23:10;100015.41;;;19.58;46.77
58761;BME280;44529;47.464;19.014;2022-09-12T17:26:13;100018.03;;;19.51;46.86
58761;BME280;44529;47.464;19.014;2022-09-12T17:29:16;100018.03;;;19.47;46.86
58761;BME280;44529;47.464;19.014;2022-09-12T17:32:19;100024.56;;;19.36;46.87
58761;BME280;44529;47.464;19.014;2022-09-12T17:35:21;100031.53;;;19.30;47.37
58761;BME280;44529;47.464;19.014;2022-09-12T17:38:23;100034.53;;;19.17;48.04
58761;BME280;44529;47.464;19.014;2022-09-12T17:41:27;100032.56;;;19.14;48.37
58761;BME280;44529;47.464;19.014;2022-09-12T17:44:30;100033.28;;;19.08;47.77
58761;BME280;44529;47.464;19.014;2022-09-12T17:47:32;100037.53;;;19.05;46.81
58761;BME280;44529;47.464;19.014;2022-09-12T17:50:36;100037.88;;;19.00;46.70
58761;BME280;44529;47.464;19.014;2022-09-12T17:53:41;100038.19;;;18.95;46.38
58761;BME280;44529;47.464;19.014;2022-09-12T17:56:44;100043.69;;;18.95;46.33
58761;BME280;44529;47.464;19.014;2022-09-12T17:59:47;100044.50;;;18.99;46.05
58761;BME280;44529;47.464;19.014;2022-09-12T18:02:49;100052.62;;;18.92;46.24
58761;BME280;44529;47.464;19.014;2022-09-12T18:05:54;100052.62;;;18.92;46.08
58761;BME280;44529;47.464;19.014;2022-09-12T18:09:01;100057.56;;;18.79;46.52